South Bend, Indiana
Current Conditions -  °F | °C
As of 9:54 PM on Tuesday 21 Oct 2014 (Local Time) from KSBN Reporting Station
Clear Clear  
Wind Chill:   Ceiling: Unl
Heat Index:   Visibility: 10mi
Dew Point:   Wind: 3mph
Humidity: 79%   Direction: 350°N
Pressure: 30.24"   Gusts: NA
Location:  41.68°N, 86.25°W
Report Text: KSBN 220154Z 35003KT 10SM CLR 04/01 A3024 RMK AO2 SLP246 T00440011
Loading
Personal Weather Stations






























Interactive Weather Map
Tropical Storm Tracking
New forecast layout! Learn more

10-Day Weather Forecast

Advertisements
Track Severe Weather on mobile